sensor_id;sensor_type;location;lat;lon;timestamp;pressure;altitude;pressure_sealevel;temperature;humidity
77626;BME280;66794;43.764;10.436;2023-08-12T00:00:24;102360.50;;;21.98;100.00
77626;BME280;66794;43.764;10.436;2023-08-12T00:03:10;102356.47;;;21.74;100.00
77626;BME280;66794;43.764;10.436;2023-08-12T00:05:55;102359.22;;;21.61;100.00
77626;BME280;66794;43.764;10.436;2023-08-12T00:08:42;102353.50;;;21.42;100.00
77626;BME280;66794;43.764;10.436;2023-08-12T00:11:27;102333.78;;;21.65;100.00
77626;BME280;66794;43.764;10.436;2023-08-12T00:14:13;102338.66;;;21.43;100.00
77626;BME280;66794;43.764;10.436;2023-08-12T00:16:59;102329.56;;;21.69;100.00
77626;BME280;66794;43.764;10.436;2023-08-12T00:19:45;102335.06;;;21.69;100.00
77626;BME280;66794;43.764;10.436;2023-08-12T00:22:31;102303.84;;;21.69;100.00
77626;BME280;66794;43.764;10.436;2023-08-12T00:25:17;102340.56;;;21.83;100.00
77626;BME280;66794;43.764;10.436;2023-08-12T00:28:03;102301.97;;;21.49;100.00
77626;BME280;66794;43.764;10.436;2023-08-12T00:30:48;102342.69;;;21.67;100.00
77626;BME280;66794;43.764;10.436;2023-08-12T00:33:34;102329.31;;;21.58;100.00
77626;BME280;66794;43.764;10.436;2023-08-12T00:36:20;102350.06;;;21.40;100.00
77626;BME280;66794;43.764;10.436;2023-08-12T00:39:06;102351.72;;;21.28;100.00
77626;BME280;66794;43.764;10.436;2023-08-12T00:41:52;102351.81;;;21.61;100.00
77626;BME280;66794;43.764;10.436;2023-08-12T00:44:37;102352.69;;;21.75;100.00
77626;BME280;66794;43.764;10.436;2023-08-12T00:47:23;102342.47;;;22.02;100.00
77626;BME280;66794;43.764;10.436;2023-08-12T00:50:12;102329.94;;;21.40;100.00
77626;BME280;66794;43.764;10.436;2023-08-12T00:52:59;102348.97;;;21.21;100.00
77626;BME280;66794;43.764;10.436;2023-08-12T00:55:45;102342.47;;;21.42;100.00
77626;BME280;66794;43.764;10.436;2023-08-12T00:58:31;102331.63;;;21.41;100.00
77626;BME280;66794;43.764;10.436;2023-08-12T01:01:17;102346.28;;;21.55;100.00
77626;BME280;66794;43.764;10.436;2023-08-12T01:04:03;102344.38;;;21.88;100.00
77626;BME280;66794;43.764;10.436;2023-08-12T01:06:49;102326.16;;;21.81;100.00
77626;BME280;66794;43.764;10.436;2023-08-12T01:09:35;102294.31;;;21.85;100.00
77626;BME280;66794;43.764;10.436;2023-08-12T01:12:35;102336.34;;;22.13;100.00
77626;BME280;66794;43.764;10.436;2023-08-12T01:15:23;102334.19;;;22.15;100.00
77626;BME280;66794;43.764;10.436;2023-08-12T01:18:12;102288.81;;;21.78;100.00
77626;BME280;66794;43.764;10.436;2023-08-12T01:20:59;102316.97;;;22.06;100.00
77626;BME280;66794;43.764;10.436;2023-08-12T01:23:49;102314.47;;;21.78;100.00
77626;BME280;66794;43.764;10.436;2023-08-12T01:26:35;102285.84;;;21.46;100.00
77626;BME280;66794;43.764;10.436;2023-08-12T01:29:20;102326.34;;;21.72;100.00
77626;BME280;66794;43.764;10.436;2023-08-12T01:38:19;102329.22;;;21.18;100.00
77626;BME280;66794;43.764;10.436;2023-08-12T01:41:06;102338.56;;;21.23;100.00
77626;BME280;66794;43.764;10.436;2023-08-12T01:43:54;102327.47;;;20.90;100.00
77626;BME280;66794;43.764;10.436;2023-08-12T01:46:43;102349.78;;;21.15;100.00
77626;BME280;66794;43.764;10.436;2023-08-12T01:49:29;102350.28;;;21.32;100.00
77626;BME280;66794;43.764;10.436;2023-08-12T01:52:14;102334.91;;;21.03;100.00
77626;BME280;66794;43.764;10.436;2023-08-12T01:55:01;102354.84;;;21.05;100.00
77626;BME280;66794;43.764;10.436;2023-08-12T01:57:47;102331.41;;;20.74;100.00
77626;BME280;66794;43.764;10.436;2023-08-12T02:00:33;102336.44;;;20.64;100.00
77626;BME280;66794;43.764;10.436;2023-08-12T02:03:18;102359.78;;;20.68;100.00
77626;BME280;66794;43.764;10.436;2023-08-12T02:06:04;102354.16;;;20.90;100.00
77626;BME280;66794;43.764;10.436;2023-08-12T02:08:50;102357.66;;;20.70;100.00
77626;BME280;66794;43.764;10.436;2023-08-12T02:11:36;102362.91;;;20.65;100.00
77626;BME280;66794;43.764;10.436;2023-08-12T02:14:22;102361.00;;;20.66;100.00
77626;BME280;66794;43.764;10.436;2023-08-12T02:17:07;102361.50;;;20.76;100.00
77626;BME280;66794;43.764;10.436;2023-08-12T02:19:53;102364.09;;;20.49;100.00
77626;BME280;66794;43.764;10.436;2023-08-12T02:22:39;102349.41;;;20.36;100.00
77626;BME280;66794;43.764;10.436;2023-08-12T02:25:25;102367.09;;;20.55;100.00
77626;BME280;66794;43.764;10.436;2023-08-12T02:28:11;102349.19;;;20.37;100.00
77626;BME280;66794;43.764;10.436;2023-08-12T02:30:56;102350.56;;;20.48;100.00
77626;BME280;66794;43.764;10.436;2023-08-12T02:33:43;102348.25;;;20.52;100.00
77626;BME280;66794;43.764;10.436;2023-08-12T02:36:28;102359.81;;;20.82;100.00
77626;BME280;66794;43.764;10.436;2023-08-12T02:39:14;102339.88;;;20.66;100.00
77626;BME280;66794;43.764;10.436;2023-08-12T02:42:00;102335.66;;;20.36;100.00
77626;BME280;66794;43.764;10.436;2023-08-12T02:44:46;102342.81;;;20.30;100.00
77626;BME280;66794;43.764;10.436;2023-08-12T02:47:31;102340.78;;;20.45;100.00
77626;BME280;66794;43.764;10.436;2023-08-12T02:50:17;102322.09;;;20.34;100.00
77626;BME280;66794;43.764;10.436;2023-08-12T02:53:03;102337.31;;;20.30;100.00
77626;BME280;66794;43.764;10.436;2023-08-12T02:55:49;102341.84;;;20.44;100.00
77626;BME280;66794;43.764;10.436;2023-08-12T02:58:35;102316.00;;;20.11;100.00
77626;BME280;66794;43.764;10.436;2023-08-12T03:01:21;102324.38;;;20.31;100.00
77626;BME280;66794;43.764;10.436;2023-08-12T03:04:07;102342.81;;;20.30;100.00
77626;BME280;66794;43.764;10.436;2023-08-12T03:06:53;102347.09;;;20.39;100.00
77626;BME280;66794;43.764;10.436;2023-08-12T03:09:39;102333.09;;;20.34;100.00
77626;BME280;66794;43.764;10.436;2023-08-12T03:12:24;102332.72;;;20.44;100.00
77626;BME280;66794;43.764;10.436;2023-08-12T03:15:10;102334.13;;;20.33;100.00
77626;BME280;66794;43.764;10.436;2023-08-12T03:17:57;102340.31;;;20.35;100.00
77626;BME280;66794;43.764;10.436;2023-08-12T03:20:43;102328.72;;;20.12;100.00
77626;BME280;66794;43.764;10.436;2023-08-12T03:23:28;102340.69;;;19.98;100.00
77626;BME280;66794;43.764;10.436;2023-08-12T03:26:14;102340.09;;;20.02;100.00
77626;BME280;66794;43.764;10.436;2023-08-12T03:29:00;102336.28;;;20.03;100.00
77626;BME280;66794;43.764;10.436;2023-08-12T03:31:45;102328.13;;;19.88;100.00
77626;BME280;66794;43.764;10.436;2023-08-12T03:34:31;102337.97;;;20.04;100.00
77626;BME280;66794;43.764;10.436;2023-08-12T03:37:17;102327.69;;;19.85;100.00
77626;BME280;66794;43.764;10.436;2023-08-12T03:40:04;102327.25;;;19.60;100.00
77626;BME280;66794;43.764;10.436;2023-08-12T03:42:49;102324.69;;;19.58;100.00
77626;BME280;66794;43.764;10.436;2023-08-12T03:45:42;102349.44;;;19.80;100.00
77626;BME280;66794;43.764;10.436;2023-08-12T03:48:28;102352.75;;;19.54;100.00
77626;BME280;66794;43.764;10.436;2023-08-12T03:51:14;102326.44;;;19.44;100.00
77626;BME280;66794;43.764;10.436;2023-08-12T03:53:59;102332.91;;;19.58;100.00
77626;BME280;66794;43.764;10.436;2023-08-12T03:56:45;102350.19;;;19.52;100.00
77626;BME280;66794;43.764;10.436;2023-08-12T03:59:31;102345.16;;;19.77;100.00
77626;BME280;66794;43.764;10.436;2023-08-12T04:02:17;102344.19;;;19.42;100.00
77626;BME280;66794;43.764;10.436;2023-08-12T04:05:02;102323.03;;;19.21;100.00
77626;BME280;66794;43.764;10.436;2023-08-12T04:07:48;102322.25;;;19.27;100.00
77626;BME280;66794;43.764;10.436;2023-08-12T04:10:34;102337.09;;;19.54;100.00
77626;BME280;66794;43.764;10.436;2023-08-12T04:13:20;102345.16;;;19.56;100.00
77626;BME280;66794;43.764;10.436;2023-08-12T04:16:05;102359.56;;;19.79;100.00
77626;BME280;66794;43.764;10.436;2023-08-12T04:18:51;102346.19;;;19.55;100.00
77626;BME280;66794;43.764;10.436;2023-08-12T04:21:37;102306.09;;;19.39;100.00
77626;BME280;66794;43.764;10.436;2023-08-12T04:24:23;102357.78;;;19.50;100.00
77626;BME280;66794;43.764;10.436;2023-08-12T04:27:08;102342.06;;;19.23;100.00
77626;BME280;66794;43.764;10.436;2023-08-12T04:29:54;102364.06;;;19.44;100.00
77626;BME280;66794;43.764;10.436;2023-08-12T04:32:40;102359.06;;;19.69;100.00
77626;BME280;66794;43.764;10.436;2023-08-12T04:35:26;102330.25;;;19.43;100.00
77626;BME280;66794;43.764;10.436;2023-08-12T04:38:11;102358.47;;;19.74;100.00
77626;BME280;66794;43.764;10.436;2023-08-12T04:40:57;102351.50;;;19.78;100.00
77626;BME280;66794;43.764;10.436;2023-08-12T04:43:43;102345.59;;;20.02;100.00
77626;BME280;66794;43.764;10.436;2023-08-12T04:46:28;102312.47;;;19.89;100.00
77626;BME280;66794;43.764;10.436;2023-08-12T04:49:14;102334.66;;;19.87;100.00
77626;BME280;66794;43.764;10.436;2023-08-12T04:52:00;102334.63;;;19.81;100.00
77626;BME280;66794;43.764;10.436;2023-08-12T04:54:46;102351.75;;;19.83;100.00
77626;BME280;66794;43.764;10.436;2023-08-12T04:57:32;102355.84;;;19.65;100.00
77626;BME280;66794;43.764;10.436;2023-08-12T05:00:18;102364.19;;;19.79;100.00
77626;BME280;66794;43.764;10.436;2023-08-12T05:03:04;102340.00;;;19.67;100.00
77626;BME280;66794;43.764;10.436;2023-08-12T05:05:50;102323.66;;;19.59;100.00
77626;BME280;66794;43.764;10.436;2023-08-12T05:08:37;102352.16;;;19.58;100.00
77626;BME280;66794;43.764;10.436;2023-08-12T05:11:23;102322.22;;;19.63;100.00
77626;BME280;66794;43.764;10.436;2023-08-12T05:14:08;102344.44;;;19.90;100.00
77626;BME280;66794;43.764;10.436;2023-08-12T05:16:54;102349.53;;;19.93;100.00
77626;BME280;66794;43.764;10.436;2023-08-12T05:19:40;102351.47;;;19.99;100.00
77626;BME280;66794;43.764;10.436;2023-08-12T05:22:26;102345.72;;;19.94;100.00
77626;BME280;66794;43.764;10.436;2023-08-12T05:25:11;102353.38;;;19.99;100.00
77626;BME280;66794;43.764;10.436;2023-08-12T05:27:57;102345.13;;;19.99;100.00
77626;BME280;66794;43.764;10.436;2023-08-12T05:30:43;102356.28;;;20.18;100.00
77626;BME280;66794;43.764;10.436;2023-08-12T05:33:28;102362.91;;;20.31;100.00
77626;BME280;66794;43.764;10.436;2023-08-12T05:36:14;102369.22;;;20.25;100.00
77626;BME280;66794;43.764;10.436;2023-08-12T05:39:00;102336.94;;;20.40;100.00
77626;BME280;66794;43.764;10.436;2023-08-12T05:41:46;102328.81;;;20.60;100.00
77626;BME280;66794;43.764;10.436;2023-08-12T05:44:31;102342.53;;;20.94;100.00
77626;BME280;66794;43.764;10.436;2023-08-12T05:47:17;102328.94;;;20.93;100.00
77626;BME280;66794;43.764;10.436;2023-08-12T05:50:03;102324.31;;;21.07;100.00
77626;BME280;66794;43.764;10.436;2023-08-12T05:52:49;102337.34;;;21.33;100.00
77626;BME280;66794;43.764;10.436;2023-08-12T05:55:35;102348.63;;;21.64;100.00
77626;BME280;66794;43.764;10.436;2023-08-12T05:58:21;102336.13;;;21.75;100.00
77626;BME280;66794;43.764;10.436;2023-08-12T06:01:07;102326.56;;;22.04;100.00
77626;BME280;66794;43.764;10.436;2023-08-12T06:03:52;102296.78;;;22.33;100.00
77626;BME280;66794;43.764;10.436;2023-08-12T06:06:38;102291.66;;;22.43;100.00
77626;BME280;66794;43.764;10.436;2023-08-12T06:09:24;102281.66;;;22.48;100.00
77626;BME280;66794;43.764;10.436;2023-08-12T06:12:10;102280.31;;;22.64;100.00
77626;BME280;66794;43.764;10.436;2023-08-12T06:14:55;102268.97;;;22.86;100.00
77626;BME280;66794;43.764;10.436;2023-08-12T06:17:41;102268.00;;;23.05;100.00
77626;BME280;66794;43.764;10.436;2023-08-12T06:20:27;102274.28;;;23.50;100.00
77626;BME280;66794;43.764;10.436;2023-08-12T06:23:13;102273.00;;;23.78;100.00
77626;BME280;66794;43.764;10.436;2023-08-12T06:25:58;102232.94;;;23.80;100.00
77626;BME280;66794;43.764;10.436;2023-08-12T06:28:44;102263.28;;;24.12;100.00
77626;BME280;66794;43.764;10.436;2023-08-12T06:31:30;102245.38;;;24.14;100.00
77626;BME280;66794;43.764;10.436;2023-08-12T06:34:16;102253.59;;;24.39;100.00
77626;BME280;66794;43.764;10.436;2023-08-12T06:37:02;102259.69;;;24.48;100.00
77626;BME280;66794;43.764;10.436;2023-08-12T06:39:47;102239.75;;;24.39;100.00
77626;BME280;66794;43.764;10.436;2023-08-12T06:42:33;102267.75;;;24.50;100.00
77626;BME280;66794;43.764;10.436;2023-08-12T06:45:19;102249.75;;;24.59;100.00
77626;BME280;66794;43.764;10.436;2023-08-12T06:48:05;102256.63;;;24.68;100.00
77626;BME280;66794;43.764;10.436;2023-08-12T06:50:55;102239.44;;;24.78;100.00
77626;BME280;66794;43.764;10.436;2023-08-12T06:53:42;102229.88;;;24.92;100.00
77626;BME280;66794;43.764;10.436;2023-08-12T06:56:27;102227.53;;;25.07;100.00
77626;BME280;66794;43.764;10.436;2023-08-12T06:59:13;102227.81;;;25.29;100.00
77626;BME280;66794;43.764;10.436;2023-08-12T07:01:59;102225.78;;;25.36;100.00
77626;BME280;66794;43.764;10.436;2023-08-12T07:04:45;102230.75;;;25.46;100.00
77626;BME280;66794;43.764;10.436;2023-08-12T07:07:31;102208.44;;;25.53;100.00
77626;BME280;66794;43.764;10.436;2023-08-12T07:10:16;102204.44;;;25.72;100.00
77626;BME280;66794;43.764;10.436;2023-08-12T07:13:02;102184.06;;;25.66;100.00
77626;BME280;66794;43.764;10.436;2023-08-12T07:15:48;102204.59;;;25.89;100.00
77626;BME280;66794;43.764;10.436;2023-08-12T07:18:34;102200.44;;;26.03;100.00
77626;BME280;66794;43.764;10.436;2023-08-12T07:21:19;102199.78;;;26.25;100.00
77626;BME280;66794;43.764;10.436;2023-08-12T07:24:05;102195.44;;;26.29;100.00
77626;BME280;66794;43.764;10.436;2023-08-12T07:26:51;102182.47;;;26.46;100.00
77626;BME280;66794;43.764;10.436;2023-08-12T07:29:37;102179.56;;;26.69;100.00
77626;BME280;66794;43.764;10.436;2023-08-12T07:32:23;102187.03;;;26.81;100.00
77626;BME280;66794;43.764;10.436;2023-08-12T07:35:08;102180.69;;;26.85;100.00
77626;BME280;66794;43.764;10.436;2023-08-12T07:37:54;102184.84;;;26.99;100.00
77626;BME280;66794;43.764;10.436;2023-08-12T07:40:40;102183.50;;;27.02;100.00
77626;BME280;66794;43.764;10.436;2023-08-12T07:43:26;102172.84;;;27.11;100.00
77626;BME280;66794;43.764;10.436;2023-08-12T07:46:12;102183.13;;;27.27;100.00
77626;BME280;66794;43.764;10.436;2023-08-12T07:48:58;102163.81;;;27.37;100.00
77626;BME280;66794;43.764;10.436;2023-08-12T07:51:43;102163.50;;;27.56;100.00
77626;BME280;66794;43.764;10.436;2023-08-12T07:54:29;102140.22;;;27.62;100.00
77626;BME280;66794;43.764;10.436;2023-08-12T07:57:15;102146.38;;;27.81;100.00
77626;BME280;66794;43.764;10.436;2023-08-12T08:00:01;102152.22;;;28.01;100.00
77626;BME280;66794;43.764;10.436;2023-08-12T08:02:46;102147.72;;;28.22;100.00
77626;BME280;66794;43.764;10.436;2023-08-12T08:05:32;102149.97;;;28.47;100.00
77626;BME280;66794;43.764;10.436;2023-08-12T08:08:18;102134.09;;;28.47;100.00
77626;BME280;66794;43.764;10.436;2023-08-12T08:11:05;102133.03;;;28.53;100.00
77626;BME280;66794;43.764;10.436;2023-08-12T08:13:51;102145.78;;;28.71;100.00
77626;BME280;66794;43.764;10.436;2023-08-12T08:16:37;102128.09;;;28.61;100.00
77626;BME280;66794;43.764;10.436;2023-08-12T08:19:25;102139.47;;;28.86;100.00
77626;BME280;66794;43.764;10.436;2023-08-12T08:22:11;102135.31;;;28.89;100.00
77626;BME280;66794;43.764;10.436;2023-08-12T08:24:57;102129.72;;;29.16;100.00
77626;BME280;66794;43.764;10.436;2023-08-12T08:27:42;102130.47;;;29.06;100.00
77626;BME280;66794;43.764;10.436;2023-08-12T08:30:28;102124.44;;;29.24;100.00
77626;BME280;66794;43.764;10.436;2023-08-12T08:33:14;102106.03;;;29.23;100.00
77626;BME280;66794;43.764;10.436;2023-08-12T08:36:00;102105.28;;;29.33;100.00
77626;BME280;66794;43.764;10.436;2023-08-12T08:38:46;102129.25;;;29.76;100.00
77626;BME280;66794;43.764;10.436;2023-08-12T08:41:38;102127.16;;;30.09;100.00
77626;BME280;66794;43.764;10.436;2023-08-12T08:44:29;102129.28;;;29.81;100.00
77626;BME280;66794;43.764;10.436;2023-08-12T08:47:16;102122.63;;;29.93;100.00
77626;BME280;66794;43.764;10.436;2023-08-12T08:50:05;102130.31;;;30.18;97.19
77626;BME280;66794;43.764;10.436;2023-08-12T08:52:51;102122.50;;;30.25;96.39
77626;BME280;66794;43.764;10.436;2023-08-12T08:55:39;102113.53;;;30.28;93.01
77626;BME280;66794;43.764;10.436;2023-08-12T08:58:25;102128.66;;;30.32;92.51
77626;BME280;66794;43.764;10.436;2023-08-12T09:01:11;102130.66;;;30.47;89.84
77626;BME280;66794;43.764;10.436;2023-08-12T09:03:58;102126.19;;;30.66;90.21
77626;BME280;66794;43.764;10.436;2023-08-12T09:06:44;102132.63;;;30.67;88.12
77626;BME280;66794;43.764;10.436;2023-08-12T09:09:31;102129.78;;;30.31;89.19
77626;BME280;66794;43.764;10.436;2023-08-12T09:12:18;102126.44;;;30.49;86.07
77626;BME280;66794;43.764;10.436;2023-08-12T09:15:05;102137.66;;;30.64;86.48
77626;BME280;66794;43.764;10.436;2023-08-12T09:17:52;102133.78;;;30.81;82.71
77626;BME280;66794;43.764;10.436;2023-08-12T09:20:37;102134.91;;;31.15;87.89
77626;BME280;66794;43.764;10.436;2023-08-12T09:23:26;102135.47;;;31.28;84.32
77626;BME280;66794;43.764;10.436;2023-08-12T09:26:15;102129.56;;;31.29;86.88
77626;BME280;66794;43.764;10.436;2023-08-12T09:29:02;102141.88;;;31.13;80.99
77626;BME280;66794;43.764;10.436;2023-08-12T09:31:48;102133.22;;;31.30;67.40
77626;BME280;66794;43.764;10.436;2023-08-12T09:34:33;102125.94;;;31.39;63.77
77626;BME280;66794;43.764;10.436;2023-08-12T09:37:20;102137.13;;;31.44;61.57
77626;BME280;66794;43.764;10.436;2023-08-12T09:40:08;102128.19;;;31.11;62.86
77626;BME280;66794;43.764;10.436;2023-08-12T09:42:55;102118.63;;;31.43;57.11
77626;BME280;66794;43.764;10.436;2023-08-12T09:45:40;102123.47;;;32.02;62.27
77626;BME280;66794;43.764;10.436;2023-08-12T09:48:26;102117.28;;;32.05;61.33
77626;BME280;66794;43.764;10.436;2023-08-12T09:51:12;102122.50;;;31.57;59.66
77626;BME280;66794;43.764;10.436;2023-08-12T09:53:58;102115.34;;;32.01;58.74
77626;BME280;66794;43.764;10.436;2023-08-12T09:56:47;102121.16;;;32.19;57.02
77626;BME280;66794;43.764;10.436;2023-08-12T09:59:34;102122.94;;;31.95;51.62
77626;BME280;66794;43.764;10.436;2023-08-12T10:02:21;102113.34;;;32.11;54.52
77626;BME280;66794;43.764;10.436;2023-08-12T10:05:10;102116.03;;;31.72;45.03
77626;BME280;66794;43.764;10.436;2023-08-12T10:07:57;102116.06;;;32.27;50.25
77626;BME280;66794;43.764;10.436;2023-08-12T10:10:44;102108.63;;;32.02;48.04
77626;BME280;66794;43.764;10.436;2023-08-12T10:13:30;102122.97;;;32.44;55.72
77626;BME280;66794;43.764;10.436;2023-08-12T10:16:16;102094.03;;;32.10;53.32
77626;BME280;66794;43.764;10.436;2023-08-12T10:19:04;102106.78;;;32.36;50.31
77626;BME280;66794;43.764;10.436;2023-08-12T10:21:55;102117.13;;;32.41;53.24
77626;BME280;66794;43.764;10.436;2023-08-12T10:24:45;102101.03;;;32.07;52.29
77626;BME280;66794;43.764;10.436;2023-08-12T10:27:32;102101.78;;;32.23;52.26
77626;BME280;66794;43.764;10.436;2023-08-12T10:30:20;102096.72;;;32.69;55.56
77626;BME280;66794;43.764;10.436;2023-08-12T10:33:06;102086.78;;;32.82;51.00
77626;BME280;66794;43.764;10.436;2023-08-12T10:35:55;102098.53;;;32.50;51.54
77626;BME280;66794;43.764;10.436;2023-08-12T10:38:43;102085.53;;;32.64;55.16
77626;BME280;66794;43.764;10.436;2023-08-12T10:41:29;102084.53;;;32.84;60.35
77626;BME280;66794;43.764;10.436;2023-08-12T10:44:21;102071.66;;;32.78;47.12
77626;BME280;66794;43.764;10.436;2023-08-12T10:47:10;102082.25;;;32.91;47.78
77626;BME280;66794;43.764;10.436;2023-08-12T10:49:59;102081.47;;;32.81;47.76
77626;BME280;66794;43.764;10.436;2023-08-12T10:52:45;102070.91;;;33.02;46.17
77626;BME280;66794;43.764;10.436;2023-08-12T10:55:36;102079.50;;;32.81;48.17
77626;BME280;66794;43.764;10.436;2023-08-12T10:58:37;102055.47;;;32.70;46.79
77626;BME280;66794;43.764;10.436;2023-08-12T11:01:30;102056.41;;;32.89;37.55
77626;BME280;66794;43.764;10.436;2023-08-12T11:04:18;102065.75;;;32.80;41.70
77626;BME280;66794;43.764;10.436;2023-08-12T11:07:15;102048.28;;;32.88;37.93
77626;BME280;66794;43.764;10.436;2023-08-12T11:12:58;102026.84;;;33.26;33.81
77626;BME280;66794;43.764;10.436;2023-08-12T11:15:44;102037.34;;;33.15;35.92
77626;BME280;66794;43.764;10.436;2023-08-12T11:18:33;102036.69;;;33.00;36.22
77626;BME280;66794;43.764;10.436;2023-08-12T11:21:19;102046.78;;;32.66;40.76
77626;BME280;66794;43.764;10.436;2023-08-12T11:24:06;102027.69;;;33.27;44.45
77626;BME280;66794;43.764;10.436;2023-08-12T11:26:52;102043.84;;;32.53;49.31
77626;BME280;66794;43.764;10.436;2023-08-12T11:29:37;102036.81;;;33.13;46.63
77626;BME280;66794;43.764;10.436;2023-08-12T11:32:24;102023.47;;;33.00;47.20
77626;BME280;66794;43.764;10.436;2023-08-12T11:35:11;102028.03;;;33.20;39.10
77626;BME280;66794;43.764;10.436;2023-08-12T11:37:58;102024.53;;;32.80;36.16
77626;BME280;66794;43.764;10.436;2023-08-12T11:40:44;102033.34;;;32.68;40.44
77626;BME280;66794;43.764;10.436;2023-08-12T11:43:32;102024.16;;;33.16;37.72
77626;BME280;66794;43.764;10.436;2023-08-12T11:46:18;101998.88;;;32.92;31.70
77626;BME280;66794;43.764;10.436;2023-08-12T11:49:04;102025.84;;;33.17;32.07
77626;BME280;66794;43.764;10.436;2023-08-12T11:51:50;102033.75;;;33.10;26.88
77626;BME280;66794;43.764;10.436;2023-08-12T11:54:36;102024.22;;;33.35;29.16
77626;BME280;66794;43.764;10.436;2023-08-12T11:57:26;102015.50;;;33.36;27.75
77626;BME280;66794;43.764;10.436;2023-08-12T12:00:13;102003.41;;;33.41;30.73
77626;BME280;66794;43.764;10.436;2023-08-12T12:02:59;102003.91;;;33.43;31.04
77626;BME280;66794;43.764;10.436;2023-08-12T12:05:46;102005.16;;;33.32;28.61
77626;BME280;66794;43.764;10.436;2023-08-12T12:08:33;102007.66;;;34.00;30.42
77626;BME280;66794;43.764;10.436;2023-08-12T12:11:19;102000.00;;;34.38;30.44
77626;BME280;66794;43.764;10.436;2023-08-12T12:14:07;101999.22;;;34.00;30.82
77626;BME280;66794;43.764;10.436;2023-08-12T12:16:53;102012.66;;;34.03;36.17
77626;BME280;66794;43.764;10.436;2023-08-12T12:19:40;102005.16;;;33.98;35.21
77626;BME280;66794;43.764;10.436;2023-08-12T12:22:31;101998.72;;;33.74;31.00
77626;BME280;66794;43.764;10.436;2023-08-12T12:25:21;102004.53;;;34.01;35.22
77626;BME280;66794;43.764;10.436;2023-08-12T12:28:07;102000.31;;;33.61;33.72
77626;BME280;66794;43.764;10.436;2023-08-12T12:30:53;102005.72;;;33.77;33.66
77626;BME280;66794;43.764;10.436;2023-08-12T12:33:39;102010.41;;;34.38;30.23
77626;BME280;66794;43.764;10.436;2023-08-12T12:36:25;101999.50;;;34.17;32.25
77626;BME280;66794;43.764;10.436;2023-08-12T12:39:11;102011.38;;;33.95;31.03
77626;BME280;66794;43.764;10.436;2023-08-12T12:41:57;102000.97;;;34.15;32.06
77626;BME280;66794;43.764;10.436;2023-08-12T12:44:45;101998.16;;;33.53;33.08
77626;BME280;66794;43.764;10.436;2023-08-12T12:47:30;101991.47;;;34.43;31.62
77626;BME280;66794;43.764;10.436;2023-08-12T12:50:16;101997.31;;;34.79;32.57
77626;BME280;66794;43.764;10.436;2023-08-12T12:53:02;101959.84;;;33.62;34.05
77626;BME280;66794;43.764;10.436;2023-08-12T12:55:48;102002.13;;;34.93;33.52
77626;BME280;66794;43.764;10.436;2023-08-12T12:58:35;101989.34;;;35.14;32.49
77626;BME280;66794;43.764;10.436;2023-08-12T13:01:21;101998.75;;;35.51;30.33
77626;BME280;66794;43.764;10.436;2023-08-12T13:04:07;102000.97;;;33.96;26.96
77626;BME280;66794;43.764;10.436;2023-08-12T13:06:56;101975.38;;;34.63;27.91
77626;BME280;66794;43.764;10.436;2023-08-12T13:09:41;101985.28;;;34.27;29.61
77626;BME280;66794;43.764;10.436;2023-08-12T13:12:27;101984.00;;;35.54;29.39
77626;BME280;66794;43.764;10.436;2023-08-12T13:15:13;101990.47;;;35.68;28.66
77626;BME280;66794;43.764;10.436;2023-08-12T13:17:59;101969.53;;;35.97;28.40
77626;BME280;66794;43.764;10.436;2023-08-12T13:20:44;101957.00;;;35.12;30.22
77626;BME280;66794;43.764;10.436;2023-08-12T13:23:30;101973.19;;;35.83;28.39
77626;BME280;66794;43.764;10.436;2023-08-12T13:26:16;101971.56;;;34.07;29.99
77626;BME280;66794;43.764;10.436;2023-08-12T13:29:02;101966.56;;;34.37;31.04
77626;BME280;66794;43.764;10.436;2023-08-12T13:31:49;101977.28;;;34.67;31.18
77626;BME280;66794;43.764;10.436;2023-08-12T13:34:35;101970.28;;;33.99;31.07
77626;BME280;66794;43.764;10.436;2023-08-12T13:37:21;101973.28;;;34.22;32.27
77626;BME280;66794;43.764;10.436;2023-08-12T13:40:07;101976.09;;;33.84;30.61
77626;BME280;66794;43.764;10.436;2023-08-12T13:42:53;101962.59;;;34.05;31.11
77626;BME280;66794;43.764;10.436;2023-08-12T13:45:38;101958.28;;;33.94;31.09
77626;BME280;66794;43.764;10.436;2023-08-12T13:48:24;101955.22;;;34.74;33.17
77626;BME280;66794;43.764;10.436;2023-08-12T13:51:10;101943.59;;;33.97;31.30
77626;BME280;66794;43.764;10.436;2023-08-12T13:53:56;101949.91;;;35.00;31.30
77626;BME280;66794;43.764;10.436;2023-08-12T13:56:41;101925.91;;;33.96;31.59
77626;BME280;66794;43.764;10.436;2023-08-12T13:59:27;101938.81;;;34.30;30.42
77626;BME280;66794;43.764;10.436;2023-08-12T14:02:14;101934.41;;;34.43;31.73
77626;BME280;66794;43.764;10.436;2023-08-12T14:05:00;101912.06;;;34.33;32.72
77626;BME280;66794;43.764;10.436;2023-08-12T14:07:45;101932.38;;;35.17;30.86
77626;BME280;66794;43.764;10.436;2023-08-12T14:10:31;101951.25;;;34.89;32.48
77626;BME280;66794;43.764;10.436;2023-08-12T14:13:17;101938.63;;;34.59;33.74
77626;BME280;66794;43.764;10.436;2023-08-12T14:16:03;101933.41;;;35.49;30.93
77626;BME280;66794;43.764;10.436;2023-08-12T14:18:48;101932.84;;;34.97;31.64